createdAt,value
2022-10-14T00:02:00.888Z,15.90
2022-10-14T00:07:04.443Z,14.10
2022-10-14T00:12:07.958Z,13.50
2022-10-14T00:17:11.293Z,13.90
2022-10-14T00:22:15.197Z,18.70
2022-10-14T00:27:18.700Z,14.10
2022-10-14T00:32:22.354Z,19.70
2022-10-14T00:37:25.665Z,14.90
2022-10-14T00:42:32.179Z,13.40
2022-10-14T00:47:35.561Z,10.90
2022-10-14T00:52:39.099Z,12.40
2022-10-14T00:57:43.086Z,15.00
2022-10-14T01:02:48.068Z,13.10
2022-10-14T01:08:15.132Z,13.60
2022-10-14T01:13:29.957Z,12.60
2022-10-14T01:19:20.017Z,11.80
2022-10-14T01:24:45.143Z,14.90
2022-10-14T01:30:09.040Z,20.10
2022-10-14T01:35:53.522Z,13.20
2022-10-14T01:41:11.580Z,18.00
2022-10-14T01:46:17.935Z,12.40
2022-10-14T01:51:31.203Z,15.60
2022-10-14T01:56:40.408Z,14.90
2022-10-14T02:01:44.279Z,15.80
2022-10-14T02:07:05.499Z,14.10
2022-10-14T02:12:52.540Z,15.40
2022-10-14T02:19:23.717Z,13.90
2022-10-14T02:24:36.954Z,16.70
2022-10-14T02:29:43.399Z,14.30
2022-10-14T02:34:52.383Z,18.10
2022-10-14T02:40:10.637Z,18.20
2022-10-14T02:45:16.350Z,18.00
2022-10-14T02:50:20.441Z,15.60
2022-10-14T02:55:23.749Z,17.10
2022-10-14T03:00:27.699Z,16.40
2022-10-14T03:05:31.093Z,15.20
2022-10-14T03:10:34.432Z,17.70
2022-10-14T03:15:37.740Z,13.90
2022-10-14T03:20:41.028Z,18.20
2022-10-14T03:25:45.529Z,20.20
2022-10-14T03:30:48.981Z,16.60
2022-10-14T03:35:52.294Z,17.20
2022-10-14T03:40:55.608Z,13.70
2022-10-14T03:45:58.895Z,18.20
2022-10-14T03:51:02.201Z,23.30
2022-10-14T03:56:06.948Z,21.30
2022-10-14T04:01:10.244Z,16.40
2022-10-14T04:06:14.782Z,17.70
2022-10-14T04:11:18.343Z,16.10
2022-10-14T04:16:21.679Z,21.90
2022-10-14T04:21:25.599Z,15.80
2022-10-14T04:26:28.950Z,14.90
2022-10-14T04:31:32.308Z,17.00
2022-10-14T04:36:36.030Z,24.90
2022-10-14T04:41:39.337Z,20.60
2022-10-14T04:46:42.649Z,19.60
2022-10-14T04:51:46.270Z,16.20
2022-10-14T04:56:49.581Z,19.70
2022-10-14T05:01:52.977Z,23.70
2022-10-14T05:06:56.411Z,24.60
2022-10-14T05:11:59.774Z,21.30
2022-10-14T05:17:03.444Z,19.60
2022-10-14T05:22:07.039Z,20.50
2022-10-14T05:27:10.363Z,20.20
2022-10-14T05:32:13.681Z,20.90
2022-10-14T05:37:16.991Z,21.30
2022-10-14T05:42:20.379Z,25.60
2022-10-14T05:47:24.127Z,20.90
2022-10-14T05:52:33.491Z,19.90
2022-10-14T05:57:37.819Z,22.70
2022-10-14T06:02:41.196Z,20.30
2022-10-14T06:07:44.611Z,24.90
2022-10-14T06:12:48.363Z,23.80
2022-10-14T06:17:51.608Z,21.00
2022-10-14T06:22:54.896Z,22.40
2022-10-14T06:28:06.090Z,20.50
2022-10-14T06:33:09.447Z,30.20
2022-10-14T06:38:13.757Z,26.70
2022-10-14T06:43:17.043Z,26.60
2022-10-14T06:48:20.385Z,24.20
2022-10-14T06:53:23.772Z,22.60
2022-10-14T06:58:27.900Z,20.10
2022-10-14T07:03:31.820Z,23.10
2022-10-14T07:08:35.805Z,18.20
2022-10-14T07:13:40.306Z,15.70
2022-10-14T07:18:44.876Z,19.60
2022-10-14T07:23:50.373Z,20.00
2022-10-14T07:28:53.816Z,22.00
2022-10-14T07:33:57.266Z,18.10
2022-10-14T07:39:01.348Z,20.90
2022-10-14T07:44:09.174Z,19.50
2022-10-14T07:49:19.755Z,21.30
2022-10-14T07:54:29.613Z,22.80
2022-10-14T07:59:33.994Z,23.80
2022-10-14T08:04:37.456Z,32.70
2022-10-14T08:09:41.393Z,23.60
2022-10-14T08:14:44.715Z,28.50
2022-10-14T08:19:50.943Z,23.90
2022-10-14T08:24:54.308Z,26.00
2022-10-14T08:29:57.653Z,24.20
2022-10-14T08:35:00.917Z,25.30
2022-10-14T08:40:06.258Z,22.50
2022-10-14T08:45:33.041Z,26.20
2022-10-14T08:50:52.020Z,24.70
2022-10-14T08:56:03.184Z,25.30
2022-10-14T09:01:28.956Z,22.70
2022-10-14T09:06:36.362Z,27.10
2022-10-14T09:11:44.997Z,28.30
2022-10-14T09:16:54.553Z,26.60
2022-10-14T09:22:01.657Z,26.60
2022-10-14T09:27:10.713Z,29.30
2022-10-14T09:32:28.039Z,25.90
2022-10-14T09:37:37.392Z,32.10
2022-10-14T09:42:49.715Z,37.00
2022-10-14T09:47:56.462Z,30.50
2022-10-14T09:53:06.052Z,34.70
2022-10-14T09:58:18.745Z,32.50
2022-10-14T10:03:39.997Z,32.40
2022-10-14T10:08:55.838Z,28.00
2022-10-14T10:14:21.713Z,33.80
2022-10-14T10:19:39.904Z,29.00
2022-10-14T10:24:45.236Z,26.50
2022-10-14T10:29:48.609Z,32.20
2022-10-14T10:35:11.174Z,34.90
2022-10-14T10:40:35.422Z,29.60
2022-10-14T10:46:03.981Z,28.30
2022-10-14T10:51:34.805Z,35.90
2022-10-14T10:56:50.844Z,37.30
2022-10-14T11:02:05.418Z,36.70
2022-10-14T11:07:55.119Z,37.90
2022-10-14T11:13:20.239Z,26.80
2022-10-14T11:18:51.585Z,25.20
2022-10-14T11:24:13.231Z,30.20
2022-10-14T11:30:01.724Z,25.90
2022-10-14T11:41:02.320Z,24.20
2022-10-14T11:46:16.585Z,25.00
2022-10-14T11:51:42.876Z,24.10
2022-10-14T11:57:05.215Z,25.10
2022-10-14T12:02:14.630Z,21.30
2022-10-14T12:07:26.860Z,26.10
2022-10-14T12:12:32.675Z,28.90
2022-10-14T12:17:47.597Z,25.70
2022-10-14T12:22:52.364Z,26.50
2022-10-14T12:27:56.271Z,25.20
2022-10-14T12:33:07.788Z,27.50
2022-10-14T12:38:13.282Z,14.90
2022-10-14T12:43:24.197Z,26.00
2022-10-14T12:48:34.155Z,23.50
2022-10-14T12:53:40.908Z,23.10
2022-10-14T12:59:01.556Z,25.70
2022-10-14T13:04:20.447Z,26.30
2022-10-14T13:09:35.504Z,28.20
2022-10-14T13:15:02.679Z,31.30
2022-10-14T13:20:35.257Z,27.30
2022-10-14T13:25:40.814Z,26.10
2022-10-14T13:31:05.610Z,34.80
2022-10-14T13:36:39.286Z,29.80
2022-10-14T13:41:45.611Z,33.10
2022-10-14T13:46:50.614Z,29.30
2022-10-14T13:52:00.963Z,30.30
2022-10-14T14:02:36.256Z,24.20
2022-10-14T14:13:05.815Z,29.80
2022-10-14T14:18:49.114Z,30.40
2022-10-14T14:24:01.937Z,25.80
2022-10-14T14:29:19.552Z,27.10
2022-10-14T14:34:24.185Z,26.30
2022-10-14T14:39:30.166Z,26.90
2022-10-14T14:44:34.833Z,30.40
2022-10-14T14:49:40.578Z,32.40
2022-10-14T14:54:48.726Z,33.20
2022-10-14T15:00:04.268Z,31.10
2022-10-14T15:05:11.503Z,33.60
2022-10-14T15:10:28.911Z,42.40
2022-10-14T15:15:34.964Z,39.50
2022-10-14T15:20:39.160Z,33.80
2022-10-14T15:25:42.494Z,34.40
2022-10-14T15:30:46.290Z,32.50
2022-10-14T15:36:02.605Z,35.90
2022-10-14T15:41:06.244Z,41.70
2022-10-14T15:46:31.815Z,35.70
2022-10-14T15:51:35.165Z,31.70
2022-10-14T15:56:39.590Z,31.40
2022-10-14T16:01:45.438Z,22.50
2022-10-14T16:06:50.872Z,31.60
2022-10-14T16:11:59.996Z,30.50
2022-10-14T16:17:04.064Z,33.70
2022-10-14T16:22:07.432Z,36.70
2022-10-14T16:27:10.698Z,40.50
2022-10-14T16:32:14.364Z,38.30
2022-10-14T16:37:21.153Z,36.50
2022-10-14T16:42:24.683Z,36.70
2022-10-14T16:47:28.507Z,28.30
2022-10-14T16:52:51.761Z,34.60
2022-10-14T16:57:55.086Z,40.30
2022-10-14T17:02:58.400Z,45.60
2022-10-14T17:08:01.813Z,53.70
2022-10-14T17:13:05.833Z,44.50
2022-10-14T17:18:12.377Z,37.50
2022-10-14T17:23:15.947Z,42.10
2022-10-14T17:28:20.646Z,39.40
2022-10-14T17:33:26.265Z,43.50
2022-10-14T17:38:31.035Z,42.00
2022-10-14T17:43:34.617Z,44.00
2022-10-14T17:48:42.842Z,46.50
2022-10-14T17:53:46.629Z,47.20
2022-10-14T17:58:59.501Z,47.30
2022-10-14T18:04:06.975Z,39.70
2022-10-14T18:09:11.650Z,47.70
2022-10-14T18:14:15.274Z,46.80
2022-10-14T18:19:18.597Z,45.90
2022-10-14T18:24:22.118Z,43.90
2022-10-14T18:29:25.823Z,40.10
2022-10-14T18:34:29.282Z,42.80
2022-10-14T18:39:32.896Z,41.40
2022-10-14T18:44:36.167Z,38.80
2022-10-14T18:49:40.658Z,36.60
2022-10-14T18:54:44.266Z,41.90
2022-10-14T18:59:51.213Z,41.90
2022-10-14T19:04:56.313Z,35.70
2022-10-14T19:09:59.715Z,42.80
2022-10-14T19:15:03.203Z,41.60
2022-10-14T19:20:08.770Z,42.60
2022-10-14T19:25:12.486Z,42.60
2022-10-14T19:30:16.094Z,45.20
2022-10-14T19:35:21.968Z,45.60
2022-10-14T19:40:25.610Z,41.10
2022-10-14T19:45:28.993Z,37.50
2022-10-14T19:50:32.487Z,35.00
2022-10-14T19:55:36.360Z,42.80
2022-10-14T20:00:39.869Z,42.90
2022-10-14T20:05:43.157Z,50.30
2022-10-14T20:10:46.616Z,44.20
2022-10-14T20:15:55.741Z,44.50
2022-10-14T20:21:01.513Z,45.80
2022-10-14T20:26:13.424Z,40.50
2022-10-14T20:31:20.932Z,46.60
2022-10-14T20:36:24.928Z,48.90
2022-10-14T20:41:28.378Z,46.50
2022-10-14T20:46:31.975Z,48.20
2022-10-14T20:51:35.921Z,46.80
2022-10-14T20:56:39.394Z,47.50
2022-10-14T21:01:42.772Z,43.10
2022-10-14T21:06:46.262Z,31.80
2022-10-14T21:11:49.739Z,48.10
2022-10-14T21:16:53.094Z,44.30
2022-10-14T21:21:56.497Z,49.70
2022-10-14T21:27:00.124Z,48.90
2022-10-14T21:32:04.533Z,42.10
2022-10-14T21:37:07.877Z,41.20
2022-10-14T21:42:11.187Z,38.50
2022-10-14T21:47:14.600Z,43.40
2022-10-14T21:52:18.312Z,39.70
2022-10-14T21:57:21.828Z,46.80
2022-10-14T22:02:25.352Z,40.90
2022-10-14T22:07:28.650Z,28.20
2022-10-14T22:12:31.986Z,37.80
2022-10-14T22:17:35.288Z,39.10
2022-10-14T22:22:38.705Z,41.10
2022-10-14T22:27:42.153Z,35.60
2022-10-14T22:32:45.490Z,32.90
2022-10-14T22:37:49.318Z,40.90
2022-10-14T22:42:52.943Z,27.40
2022-10-14T22:47:56.389Z,36.20
2022-10-14T22:52:59.633Z,43.60
2022-10-14T22:58:03.011Z,38.50
2022-10-14T23:03:06.359Z,39.10
2022-10-14T23:08:14.755Z,37.50
2022-10-14T23:13:18.082Z,37.90
2022-10-14T23:18:21.490Z,40.80
2022-10-14T23:23:25.022Z,32.00
2022-10-14T23:28:28.504Z,42.80
2022-10-14T23:33:32.819Z,30.50
2022-10-14T23:38:37.399Z,40.30
2022-10-14T23:43:41.923Z,40.90
2022-10-14T23:48:51.516Z,43.60
2022-10-14T23:54:04.825Z,40.90
2022-10-14T23:59:08.072Z,36.20
